Time;durP1;ratioP1;P1;durP2;ratioP2;P2;SDS_P1;SDS_P2;PMS_P1;PMS_P2;Temp;Humidity;BMP_temperature;BMP_pressure;BME280_temperature;BME280_humidity;BME280_pressure;Samples;Min_cycle;Max_cycle;Signal;HPM_P1;HPM_P2
2021/05/09 00:01:42;;;;;;;17.30;8.77;;;10.20;96.20;;;;;;5033960;28;20038;-70
2021/05/09 00:04:09;;;;;;;21.95;8.98;;;10.20;95.70;;;;;;5033812;28;20032;-69
2021/05/09 00:06:35;;;;;;;14.30;8.70;;;10.00;96.20;;;;;;5033197;28;20378;-71
2021/05/09 00:09:01;;;;;;;20.05;8.25;;;10.00;95.80;;;;;;5015820;28;20052;-69
2021/05/09 00:11:33;;;;;;;20.95;9.75;;;10.00;96.00;;;;;;5033709;28;20132;-72
2021/05/09 00:13:59;;;;;;;22.30;11.30;;;9.90;96.80;;;;;;5015939;28;20026;-69
2021/05/09 00:16:25;;;;;;;19.40;9.63;;;9.80;97.50;;;;;;5033699;28;20026;-69
2021/05/09 00:18:51;;;;;;;18.30;9.02;;;9.70;97.50;;;;;;5015873;28;20112;-70
2021/05/09 00:21:17;;;;;;;16.55;8.23;;;9.70;98.00;;;;;;5033545;28;20104;-69
2021/05/09 00:23:43;;;;;;;17.60;8.82;;;9.70;98.40;;;;;;5015818;28;20415;-68
2021/05/09 00:26:09;;;;;;;19.48;9.10;;;9.70;98.30;;;;;;5033532;28;20041;-69
2021/05/09 00:28:35;;;;;;;22.98;9.45;;;9.60;98.30;;;;;;5033483;28;20105;-69
2021/05/09 00:31:00;;;;;;;16.65;8.38;;;9.60;98.50;;;;;;5033437;28;20455;-69
2021/05/09 00:33:26;;;;;;;18.77;9.05;;;9.70;97.70;;;;;;5033188;28;20127;-69
2021/05/09 00:35:52;;;;;;;14.30;8.10;;;9.70;97.60;;;;;;5033364;28;20126;-69
2021/05/09 00:38:18;;;;;;;14.90;7.85;;;9.60;97.50;;;;;;5033375;28;20022;-69
2021/05/09 00:40:44;;;;;;;19.52;8.75;;;9.60;97.80;;;;;;5033234;28;20063;-69
2021/05/09 00:43:10;;;;;;;15.95;8.02;;;9.60;97.90;;;;;;5033222;28;20130;-69
2021/05/09 00:45:36;;;;;;;16.35;7.85;;;9.60;97.60;;;;;;5015485;28;20029;-69
2021/05/09 00:48:03;;;;;;;15.48;7.22;;;9.60;98.10;;;;;;5015429;28;20030;-69
2021/05/09 00:50:29;;;;;;;15.82;7.03;;;9.50;97.90;;;;;;5015473;28;20052;-69
2021/05/09 00:52:56;;;;;;;12.30;6.78;;;9.50;98.10;;;;;;5033429;28;20076;-69
2021/05/09 00:55:23;;;;;;;12.88;6.90;;;9.50;98.40;;;;;;5033158;28;20025;-69
2021/05/09 00:57:49;;;;;;;12.57;6.50;;;9.50;97.80;;;;;;5015373;28;20068;-69
2021/05/09 01:00:15;;;;;;;14.40;6.75;;;9.50;97.60;;;;;;5032993;28;20034;-69
2021/05/09 01:02:43;;;;;;;12.60;7.13;;;9.50;97.70;;;;;;5033067;28;20033;-69
2021/05/09 01:05:11;;;;;;;11.88;7.05;;;9.60;98.60;;;;;;5015389;28;20382;-69
2021/05/09 01:07:37;;;;;;;15.52;7.28;;;9.50;98.30;;;;;;5033027;28;20021;-69
2021/05/09 01:10:08;;;;;;;14.05;6.85;;;9.50;98.50;;;;;;5032791;28;20038;-70
2021/05/09 01:12:35;;;;;;;11.73;6.90;;;9.50;98.50;;;;;;5032980;28;20026;-69
2021/05/09 01:15:02;;;;;;;13.77;7.03;;;9.40;98.20;;;;;;5015295;28;20037;-70
2021/05/09 01:17:29;;;;;;;16.95;7.53;;;9.40;98.00;;;;;;5017528;28;20466;-70
2021/05/09 01:20:19;;;;;;;13.35;6.82;;;9.40;97.90;;;;;;5019227;28;20025;-70
2021/05/09 01:22:45;;;;;;;13.88;6.43;;;9.40;98.20;;;;;;5019129;28;20037;-69
2021/05/09 01:25:11;;;;;;;14.98;6.90;;;9.40;98.30;;;;;;5019240;28;20025;-69
2021/05/09 01:27:38;;;;;;;12.75;6.68;;;9.30;98.60;;;;;;5019049;28;20489;-69
2021/05/09 01:30:08;;;;;;;15.43;6.80;;;9.30;98.80;;;;;;5019021;28;20030;-70
2021/05/09 01:32:34;;;;;;;16.25;5.68;;;9.30;98.20;;;;;;5018842;28;20481;-69
2021/05/09 01:35:00;;;;;;;10.55;5.68;;;9.30;97.60;;;;;;5018970;28;20026;-70
2021/05/09 01:37:26;;;;;;;9.82;5.20;;;9.20;97.40;;;;;;5036675;28;20083;-70
2021/05/09 01:39:52;;;;;;;10.07;5.32;;;9.20;97.00;;;;;;5036255;28;20442;-70
2021/05/09 01:42:18;;;;;;;8.32;5.28;;;9.20;97.10;;;;;;5036221;28;20125;-70
2021/05/09 01:44:56;;;;;;;9.80;5.72;;;9.20;97.00;;;;;;5036450;28;20033;-70
2021/05/09 01:47:22;;;;;;;11.80;5.95;;;9.20;97.50;;;;;;5036429;28;20101;-70
2021/05/09 01:49:48;;;;;;;10.00;5.10;;;9.30;97.70;;;;;;5018347;28;20026;-69
2021/05/09 01:52:15;;;;;;;8.02;5.43;;;9.20;97.50;;;;;;5018660;28;20029;-70
2021/05/09 01:54:42;;;;;;;10.00;5.47;;;9.20;97.60;;;;;;5036661;28;20099;-70
2021/05/09 01:57:08;;;;;;;9.90;5.55;;;9.20;97.30;;;;;;5036062;28;20022;-69
2021/05/09 01:59:34;;;;;;;10.05;5.00;;;9.20;97.40;;;;;;5018417;28;20083;-69
2021/05/09 02:02:00;;;;;;;9.30;5.55;;;9.20;97.30;;;;;;5035890;28;20121;-69
2021/05/09 02:04:26;;;;;;;9.63;5.60;;;9.20;97.40;;;;;;5036262;28;20466;-69
2021/05/09 02:06:52;;;;;;;8.10;5.03;;;9.20;97.50;;;;;;5036087;28;20059;-69
2021/05/09 02:09:18;;;;;;;15.55;5.55;;;9.10;97.70;;;;;;5036062;28;20025;-69
2021/05/09 02:11:44;;;;;;;10.93;5.22;;;9.10;98.00;;;;;;5017990;28;20093;-69
2021/05/09 02:14:10;;;;;;;7.55;5.47;;;9.00;98.30;;;;;;5018339;28;20433;-69
2021/05/09 02:16:35;;;;;;;8.82;5.25;;;9.00;98.20;;;;;;5018120;28;20373;-68
2021/05/09 02:19:02;;;;;;;9.30;4.95;;;9.00;98.30;;;;;;5018101;28;20032;-69
2021/05/09 02:21:28;;;;;;;13.88;5.75;;;9.00;98.00;;;;;;5035914;28;20038;-69
2021/05/09 02:23:54;;;;;;;12.45;5.75;;;9.00;98.40;;;;;;5035807;28;20064;-69
2021/05/09 02:26:20;;;;;;;8.27;4.95;;;9.00;98.40;;;;;;5035608;28;20459;-69
2021/05/09 02:28:46;;;;;;;18.65;6.18;;;8.90;98.30;;;;;;5034961;28;20029;-69
2021/05/09 02:31:12;;;;;;;10.82;6.47;;;8.90;98.10;;;;;;5035706;28;20030;-68
2021/05/09 02:33:38;;;;;;;8.80;6.07;;;8.90;98.00;;;;;;5035636;28;20036;-68
2021/05/09 02:36:05;;;;;;;13.18;6.70;;;8.90;98.20;;;;;;5035655;28;20033;-68
2021/05/09 02:38:30;;;;;;;14.68;6.70;;;8.90;98.00;;;;;;5018043;28;20409;-68
2021/05/09 02:40:56;;;;;;;12.85;5.93;;;8.90;98.40;;;;;;5035648;28;20029;-68
2021/05/09 02:43:22;;;;;;;13.40;6.30;;;8.90;99.00;;;;;;5035691;28;20044;-68
2021/05/09 02:45:48;;;;;;;11.85;5.90;;;8.90;98.70;;;;;;5035500;28;20033;-69
2021/05/09 02:48:14;;;;;;;12.07;7.40;;;8.70;98.90;;;;;;5017241;28;20061;-69
2021/05/09 02:50:40;;;;;;;9.75;6.60;;;8.70;99.00;;;;;;5017531;28;20037;-69
2021/05/09 02:53:06;;;;;;;9.77;5.78;;;8.80;99.20;;;;;;5035304;28;20033;-69
2021/05/09 02:55:31;;;;;;;8.70;5.65;;;8.80;99.40;;;;;;5035268;28;20029;-69
2021/05/09 02:57:57;;;;;;;18.30;7.47;;;8.70;99.70;;;;;;5034944;28;20025;-71
2021/05/09 03:00:23;;;;;;;13.93;6.60;;;8.70;99.90;;;;;;5034830;28;20069;-70
2021/05/09 03:02:49;;;;;;;15.77;7.68;;;8.60;99.90;;;;;;5035253;28;20025;-70
2021/05/09 03:05:15;;;;;;;22.00;12.63;;;8.60;99.90;;;;;;5035075;28;20508;-68
2021/05/09 03:07:41;;;;;;;35.10;22.13;;;8.70;99.90;;;;;;5034751;28;20041;-69
2021/05/09 03:10:07;;;;;;;38.10;23.10;;;8.60;99.90;;;;;;5034522;28;20053;-70
2021/05/09 03:12:33;;;;;;;30.83;21.25;;;8.60;99.90;;;;;;5035297;28;20481;-69
2021/05/09 03:14:59;;;;;;;32.47;21.60;;;8.60;99.90;;;;;;5034915;28;20109;-69
2021/05/09 03:17:25;;;;;;;31.77;20.40;;;8.60;99.90;;;;;;5017053;28;20032;-69
2021/05/09 03:19:51;;;;;;;30.67;18.98;;;8.60;99.90;;;;;;5017006;28;20067;-70
2021/05/09 03:22:17;;;;;;;18.75;10.27;;;8.50;99.90;;;;;;5034670;28;20033;-71
2021/05/09 03:24:42;;;;;;;14.52;8.48;;;8.50;99.90;;;;;;5034795;28;20033;-71
2021/05/09 03:27:08;;;;;;;11.32;6.50;;;8.60;99.90;;;;;;5034618;28;20044;-71
2021/05/09 03:29:34;;;;;;;14.25;7.20;;;8.60;99.90;;;;;;5034636;28;20482;-71
2021/05/09 03:32:00;;;;;;;13.00;7.18;;;8.50;99.90;;;;;;5034840;28;20171;-69
2021/05/09 03:34:26;;;;;;;12.98;6.78;;;8.50;99.90;;;;;;5016763;28;20033;-69
2021/05/09 03:36:51;;;;;;;11.65;6.18;;;8.50;99.90;;;;;;5016711;28;20029;-70
2021/05/09 03:39:17;;;;;;;12.98;6.18;;;8.50;99.90;;;;;;5034325;28;20516;-70
2021/05/09 03:41:43;;;;;;;11.30;6.70;;;8.50;99.90;;;;;;5015651;28;20087;-70
2021/05/09 03:44:09;;;;;;;12.30;6.60;;;8.50;99.90;;;;;;5016547;28;20041;-70
2021/05/09 03:46:35;;;;;;;9.43;5.50;;;8.50;99.90;;;;;;5034374;28;20359;-70
2021/05/09 03:49:01;;;;;;;10.23;5.97;;;8.60;99.90;;;;;;5016457;28;20116;-70
2021/05/09 03:51:26;;;;;;;10.43;5.57;;;8.60;99.90;;;;;;5016413;28;20042;-70
2021/05/09 03:53:52;;;;;;;8.95;5.28;;;8.60;99.70;;;;;;5016253;28;20075;-70
2021/05/09 03:56:18;;;;;;;9.43;5.25;;;8.60;99.60;;;;;;5034120;28;20029;-70
2021/05/09 03:58:44;;;;;;;9.30;5.45;;;8.60;99.70;;;;;;5016037;28;20385;-70
2021/05/09 04:01:10;;;;;;;8.57;5.25;;;8.60;99.10;;;;;;5033659;28;20112;-70
2021/05/09 04:03:36;;;;;;;10.70;4.88;;;8.70;99.10;;;;;;5033976;28;20529;-69
2021/05/09 04:06:02;;;;;;;8.60;5.47;;;8.70;99.00;;;;;;5016103;28;20136;-69
2021/05/09 04:08:28;;;;;;;9.73;6.10;;;8.70;98.90;;;;;;5033608;28;20512;-69
2021/05/09 04:10:55;;;;;;;10.30;5.95;;;8.80;98.90;;;;;;5033368;28;20053;-69
2021/05/09 04:13:22;;;;;;;10.35;5.25;;;8.80;99.10;;;;;;5033635;28;20029;-69
2021/05/09 04:15:48;;;;;;;11.98;5.63;;;8.70;99.90;;;;;;5033728;28;20033;-69
2021/05/09 04:18:14;;;;;;;15.98;6.35;;;8.70;99.80;;;;;;5015938;28;20166;-69
2021/05/09 04:20:40;;;;;;;12.38;6.32;;;8.70;99.90;;;;;;5033569;28;20053;-69
2021/05/09 04:23:07;;;;;;;9.07;5.65;;;8.80;98.90;;;;;;5033831;28;20034;-69
2021/05/09 04:25:33;;;;;;;8.52;5.65;;;8.90;99.00;;;;;;5033591;28;20120;-69
2021/05/09 04:27:59;;;;;;;8.00;4.72;;;8.90;99.20;;;;;;5033567;28;20554;-69
2021/05/09 04:30:25;;;;;;;8.20;5.25;;;8.90;98.40;;;;;;5015702;28;20036;-69
2021/05/09 04:33:05;;;;;;;9.93;5.10;;;9.00;98.60;;;;;;5033182;28;20490;-68
2021/05/09 04:35:32;;;;;;;8.23;5.15;;;9.10;98.60;;;;;;5033416;28;20021;-70
2021/05/09 04:37:59;;;;;;;17.63;5.82;;;9.10;98.70;;;;;;5015648;28;20099;-69
2021/05/09 04:40:27;;;;;;;13.45;5.50;;;9.20;98.00;;;;;;5033285;28;20171;-69
2021/05/09 04:42:54;;;;;;;10.48;5.32;;;9.30;98.40;;;;;;5015587;28;20056;-69
2021/05/09 04:45:20;;;;;;;9.38;5.43;;;9.40;98.20;;;;;;5033336;28;20032;-70
2021/05/09 04:47:46;;;;;;;8.90;4.78;;;9.40;97.70;;;;;;5032944;28;20485;-69
2021/05/09 04:50:13;;;;;;;8.27;5.13;;;9.50;97.50;;;;;;5033196;28;20029;-69
2021/05/09 04:52:39;;;;;;;7.32;4.95;;;9.60;96.80;;;;;;5032829;28;20087;-68
2021/05/09 04:55:07;;;;;;;9.18;5.47;;;9.70;96.10;;;;;;5033138;28;20072;-68
2021/05/09 04:57:34;;;;;;;18.70;6.13;;;9.80;96.70;;;;;;5015280;28;20030;-69
2021/05/09 05:00:06;;;;;;;11.80;5.78;;;9.90;96.00;;;;;;5033130;28;20030;-69
2021/05/09 05:02:32;;;;;;;10.98;6.28;;;9.90;95.90;;;;;;5015304;28;20363;-69
2021/05/09 05:04:58;;;;;;;14.32;6.38;;;10.00;96.50;;;;;;5033100;28;20060;-69
2021/05/09 05:07:24;;;;;;;31.13;7.28;;;10.10;95.80;;;;;;5033024;28;20071;-69
2021/05/09 05:09:50;;;;;;;9.15;5.15;;;10.20;96.10;;;;;;5035297;28;20048;-69
2021/05/09 05:12:17;;;;;;;7.88;4.90;;;10.30;96.10;;;;;;5014929;28;20058;-70
2021/05/09 05:14:43;;;;;;;8.60;5.20;;;10.40;95.30;;;;;;5032841;28;20037;-69
2021/05/09 05:17:09;;;;;;;10.70;5.28;;;10.40;95.00;;;;;;5015216;28;20036;-69
2021/05/09 05:19:35;;;;;;;10.40;6.05;;;10.60;94.40;;;;;;5032907;28;20033;-70
2021/05/09 05:22:02;;;;;;;11.35;6.60;;;10.60;94.60;;;;;;5032117;28;20437;-69
2021/05/09 05:24:28;;;;;;;9.60;6.28;;;10.70;94.70;;;;;;5035248;28;20034;-69
2021/05/09 05:26:54;;;;;;;20.08;6.72;;;10.80;95.80;;;;;;5032482;28;20033;-69
2021/05/09 05:29:21;;;;;;;12.57;7.22;;;10.90;94.90;;;;;;5032602;28;20026;-68
2021/05/09 05:31:48;;;;;;;18.02;8.02;;;11.00;95.00;;;;;;5033084;28;20112;-68
2021/05/09 05:34:15;;;;;;;13.25;7.85;;;11.10;95.30;;;;;;5032702;28;20029;-69
2021/05/09 05:36:40;;;;;;;13.13;9.15;;;11.20;96.40;;;;;;5032819;28;20025;-68
2021/05/09 05:39:07;;;;;;;16.55;11.27;;;11.40;97.00;;;;;;5032683;28;20109;-70
2021/05/09 05:41:33;;;;;;;14.48;9.02;;;11.40;95.80;;;;;;5032619;28;20033;-70
2021/05/09 05:43:59;;;;;;;9.02;6.82;;;11.50;95.80;;;;;;5032722;28;20386;-70
2021/05/09 05:46:27;;;;;;;9.00;5.80;;;11.60;96.30;;;;;;5032269;28;20049;-69
2021/05/09 05:48:54;;;;;;;7.57;5.75;;;11.60;96.90;;;;;;5014336;28;20029;-70
2021/05/09 05:51:20;;;;;;;9.25;5.88;;;11.80;97.20;;;;;;5014824;28;20029;-71
2021/05/09 05:53:46;;;;;;;8.80;5.93;;;11.80;97.30;;;;;;5032588;28;20060;-70
2021/05/09 05:56:12;;;;;;;10.52;6.75;;;11.90;97.60;;;;;;5014595;28;20025;-70
2021/05/09 05:58:38;;;;;;;8.23;5.28;;;12.00;96.70;;;;;;5032573;28;20038;-70
2021/05/09 06:01:04;;;;;;;8.57;6.35;;;12.10;95.60;;;;;;5032244;28;20072;-68
2021/05/09 06:03:30;;;;;;;11.25;7.90;;;12.20;96.10;;;;;;5032816;28;20034;-69
2021/05/09 06:05:57;;;;;;;12.90;8.43;;;12.30;96.30;;;;;;5018394;28;20112;-69
2021/05/09 06:08:23;;;;;;;12.35;7.35;;;12.40;95.40;;;;;;5035897;28;20028;-70
2021/05/09 06:10:49;;;;;;;14.55;7.47;;;12.50;94.90;;;;;;5035961;28;20057;-69
2021/05/09 06:13:19;;;;;;;10.20;7.18;;;12.60;95.30;;;;;;5036019;28;20371;-72
2021/05/09 06:15:45;;;;;;;12.35;7.88;;;12.70;95.80;;;;;;5018231;28;20026;-71
2021/05/09 06:18:11;;;;;;;10.80;7.05;;;12.80;96.50;;;;;;5036034;28;20030;-67
2021/05/09 06:20:37;;;;;;;10.07;6.18;;;12.90;94.20;;;;;;5035548;28;20038;-68
2021/05/09 06:23:03;;;;;;;10.32;6.28;;;13.00;96.70;;;;;;5036149;28;20037;-69
2021/05/09 06:25:30;;;;;;;11.73;6.38;;;13.10;94.10;;;;;;5018018;28;20030;-71
2021/05/09 06:27:56;;;;;;;8.85;6.38;;;13.20;93.90;;;;;;5035830;28;20028;-68
2021/05/09 06:30:22;;;;;;;8.77;5.85;;;13.30;95.10;;;;;;5035731;28;20025;-72
2021/05/09 06:32:48;;;;;;;11.60;5.93;;;13.40;93.80;;;;;;5035654;28;20036;-70
2021/05/09 06:35:15;;;;;;;11.52;5.93;;;13.50;91.50;;;;;;5035595;28;20029;-69
2021/05/09 06:37:41;;;;;;;9.35;5.82;;;13.60;90.20;;;;;;5033902;28;20177;-72
2021/05/09 06:40:08;;;;;;;11.13;5.93;;;13.70;92.30;;;;;;5035472;28;20104;-72
2021/05/09 06:42:34;;;;;;;13.27;7.18;;;13.80;90.70;;;;;;5035322;28;20045;-70
2021/05/09 06:45:10;;;;;;;9.55;6.22;;;13.90;90.00;;;;;;5035349;28;20109;-70
2021/05/09 06:47:36;;;;;;;12.05;6.20;;;14.00;89.70;;;;;;5035512;28;20060;-71
2021/05/09 06:50:02;;;;;;;11.52;5.45;;;14.10;85.40;;;;;;5035372;28;20462;-71
2021/05/09 06:52:28;;;;;;;12.82;6.20;;;14.20;85.50;;;;;;5035581;28;20045;-71
2021/05/09 06:54:54;;;;;;;11.55;5.28;;;14.30;90.40;;;;;;5035003;28;20034;-71
2021/05/09 06:57:20;;;;;;;11.05;4.50;;;14.40;91.20;;;;;;5035156;28;20080;-71
2021/05/09 06:59:46;;;;;;;13.40;4.68;;;14.50;85.10;;;;;;5017370;28;20025;-72
2021/05/09 07:02:12;;;;;;;9.35;3.88;;;;;;;;;;5035063;28;20065;-70
2021/05/09 07:04:39;;;;;;;8.25;3.70;;;;;;;;;;5035373;28;20037;-70
2021/05/09 07:07:05;;;;;;;9.05;3.95;;;;;;;;;;5035016;28;20458;-69
2021/05/09 07:09:31;;;;;;;8.38;4.25;;;;;;;;;;5034935;28;20561;-69
2021/05/09 07:11:57;;;;;;;13.80;4.38;;;;;;;;;;5034821;28;20103;-72
2021/05/09 07:14:23;;;;;;;7.65;4.35;;;;;;;;;;5034765;28;20036;-70
2021/05/09 07:16:49;;;;;;;13.38;5.22;;;15.30;81.30;;;;;;5034934;28;20025;-72
2021/05/09 07:19:16;;;;;;;9.77;4.05;;;15.30;79.80;;;;;;5035050;28;20087;-70
2021/05/09 07:21:46;;;;;;;10.13;4.88;;;15.40;80.90;;;;;;5034533;28;20049;-70
2021/05/09 07:24:12;;;;;;;8.07;4.68;;;15.60;82.30;;;;;;5034411;28;20025;-70
2021/05/09 07:26:37;;;;;;;11.55;5.55;;;15.70;82.70;;;;;;5034706;28;20091;-72
2021/05/09 07:29:03;;;;;;;12.05;4.28;;;15.80;80.40;;;;;;5016807;28;20025;-71
2021/05/09 07:31:31;;;;;;;9.23;4.07;;;15.90;80.20;;;;;;5016701;28;20037;-73
2021/05/09 07:33:57;;;;;;;11.18;4.80;;;16.00;80.30;;;;;;5033849;28;20455;-69
2021/05/09 07:36:23;;;;;;;8.48;3.38;;;16.10;77.60;;;;;;5016567;28;20112;-70
2021/05/09 07:38:49;;;;;;;10.93;5.03;;;16.20;77.10;;;;;;5034231;28;20025;-70
2021/05/09 07:41:15;;;;;;;8.73;4.55;;;16.30;74.90;;;;;;5034187;28;20041;-69
2021/05/09 07:43:42;;;;;;;9.35;4.45;;;16.40;75.10;;;;;;5034376;28;20385;-68
2021/05/09 07:46:07;;;;;;;8.32;4.18;;;16.50;74.50;;;;;;5034041;28;20052;-69
2021/05/09 07:48:33;;;;;;;9.02;5.32;;;16.60;78.20;;;;;;5015426;28;20033;-69
2021/05/09 07:51:00;;;;;;;12.35;5.72;;;16.70;74.00;;;;;;5033049;28;20116;-69
2021/05/09 07:53:26;;;;;;;9.88;4.47;;;16.80;73.60;;;;;;5034028;28;20042;-69
2021/05/09 07:55:52;;;;;;;7.20;3.55;;;16.90;74.00;;;;;;5034006;28;20075;-68
2021/05/09 07:58:20;;;;;;;8.82;4.00;;;17.00;75.60;;;;;;5034124;28;20470;-68
2021/05/09 08:00:46;;;;;;;5.95;3.85;;;17.20;74.10;;;;;;5033958;28;20040;-68
2021/05/09 08:03:13;;;;;;;7.35;3.85;;;17.20;69.90;;;;;;5034014;28;20025;-69
2021/05/09 08:05:39;;;;;;;8.85;3.95;;;17.40;70.20;;;;;;5016185;28;20029;-68
2021/05/09 08:08:05;;;;;;;9.38;4.38;;;17.50;66.40;;;;;;5033915;28;20083;-70
2021/05/09 08:10:36;;;;;;;5.63;3.58;;;17.60;69.50;;;;;;5033553;28;20068;-67
2021/05/09 08:13:12;;;;;;;5.20;2.70;;;17.70;65.30;;;;;;5014270;28;20489;-70
2021/05/09 08:15:39;;;;;;;7.47;3.35;;;17.80;65.20;;;;;;5033345;28;20109;-69
2021/05/09 08:18:05;;;;;;;5.00;2.80;;;18.00;67.10;;;;;;5033767;28;20056;-69
2021/05/09 08:20:32;;;;;;;6.95;3.45;;;18.10;66.70;;;;;;5033849;28;20029;-69
2021/05/09 08:22:58;;;;;;;7.32;3.17;;;18.30;64.80;;;;;;5015860;28;20096;-69
2021/05/09 08:25:24;;;;;;;8.45;2.63;;;18.40;66.10;;;;;;5015560;28;20025;-69
2021/05/09 08:27:51;;;;;;;7.13;2.67;;;18.50;65.90;;;;;;5032929;28;20026;-69
2021/05/09 08:30:20;;;;;;;6.53;2.33;;;18.50;64.00;;;;;;5033514;28;20061;-70
2021/05/09 08:32:45;;;;;;;4.53;2.72;;;18.50;62.10;;;;;;5033412;28;20033;-69
2021/05/09 08:35:12;;;;;;;4.60;2.72;;;18.70;62.60;;;;;;5033435;28;20458;-70
2021/05/09 08:37:39;;;;;;;5.18;2.55;;;18.80;63.60;;;;;;5032644;28;20038;-68
2021/05/09 08:40:09;;;;;;;4.00;2.35;;;18.90;60.10;;;;;;5015241;28;20030;-68
2021/05/09 08:42:36;;;;;;;4.38;2.13;;;19.10;61.80;;;;;;5033290;28;20029;-68
2021/05/09 08:45:02;;;;;;;4.82;2.65;;;19.20;59.20;;;;;;5033525;28;20042;-69
2021/05/09 08:47:38;;;;;;;3.60;2.13;;;19.30;58.50;;;;;;5033305;28;20036;-67
2021/05/09 08:50:08;;;;;;;4.88;2.83;;;19.40;57.90;;;;;;5033169;28;20026;-68
2021/05/09 08:52:35;;;;;;;4.15;2.05;;;19.50;59.10;;;;;;5033168;28;20037;-69
2021/05/09 08:55:04;;;;;;;4.47;2.33;;;19.50;55.60;;;;;;5032962;28;20488;-68
2021/05/09 08:57:30;;;;;;;3.65;2.20;;;19.70;57.50;;;;;;5033023;28;20026;-70
2021/05/09 08:59:56;;;;;;;5.03;2.20;;;19.90;57.10;;;;;;5033057;28;20454;-69
2021/05/09 09:02:26;;;;;;;4.10;2.25;;;19.90;55.10;;;;;;5032788;28;20390;-69
2021/05/09 09:04:54;;;;;;;4.82;2.17;;;20.10;55.20;;;;;;5032938;28;20104;-69
2021/05/09 09:07:20;;;;;;;3.25;2.13;;;20.10;55.10;;;;;;5033002;28;20029;-69
2021/05/09 09:09:49;;;;;;;6.00;2.60;;;20.30;54.00;;;;;;5032967;28;20033;-69
2021/05/09 09:12:16;;;;;;;4.90;2.20;;;;;;;;;;5032388;28;20188;-69
2021/05/09 09:14:59;;;;;;;2.70;1.95;;;20.60;55.10;;;;;;5015148;28;20493;-69
2021/05/09 09:17:25;;;;;;;4.18;2.15;;;20.80;55.80;;;;;;5032024;28;20030;-69
2021/05/09 09:20:13;;;;;;;3.72;1.98;;;21.00;53.90;;;;;;5031624;28;20461;-71
2021/05/09 09:22:52;;;;;;;4.28;2.42;;;21.20;53.60;;;;;;5013703;28;20068;-70
2021/05/09 09:25:20;;;;;;;5.55;2.78;;;21.20;53.70;;;;;;5032778;28;20025;-68
2021/05/09 09:27:47;;;;;;;6.15;2.85;;;21.50;54.30;;;;;;5032467;28;20386;-68
2021/05/09 09:30:15;;;;;;;5.15;2.78;;;21.60;52.70;;;;;;5032757;28;20024;-69
2021/05/09 09:32:41;;;;;;;5.45;2.35;;;21.70;54.30;;;;;;5032633;28;20364;-69
2021/05/09 09:35:33;;;;;;;7.75;2.75;;;21.80;53.80;;;;;;5014970;28;20033;-69
2021/05/09 09:37:59;;;;;;;5.82;2.92;;;21.90;51.10;;;;;;5028986;28;20407;-69
2021/05/09 09:40:25;;;;;;;4.25;2.42;;;22.10;52.60;;;;;;5036515;28;20022;-69
2021/05/09 09:42:51;;;;;;;4.53;2.25;;;22.20;51.90;;;;;;5036489;28;20033;-68
2021/05/09 09:45:18;;;;;;;3.88;1.90;;;22.20;50.50;;;;;;5018677;28;20025;-68
2021/05/09 09:48:02;;;;;;;3.05;2.28;;;22.40;49.50;;;;;;5036506;28;20382;-69
2021/05/09 09:50:44;;;;;;;7.38;2.60;;;;;;;;;;5036420;28;20026;-69
2021/05/09 09:53:29;;;;;;;4.40;1.85;;;;;;;;;;5036286;28;20018;-69
2021/05/09 09:56:08;;;;;;;4.35;2.60;;;;;;;;;;5036290;28;20091;-69
2021/05/09 09:58:55;;;;;;;3.17;2.20;;;23.20;51.70;;;;;;5036382;28;20040;-70
2021/05/09 10:01:25;;;;;;;2.35;1.90;;;23.30;49.90;;;;;;5036277;28;20104;-70
2021/05/09 10:03:56;;;;;;;3.92;2.10;;;23.40;48.90;;;;;;5036167;28;20031;-69
2021/05/09 10:06:23;;;;;;;2.08;1.88;;;23.60;49.30;;;;;;5018377;28;20036;-70
2021/05/09 10:08:50;;;;;;;3.08;1.90;;;23.70;49.00;;;;;;5036211;28;20025;-69
2021/05/09 10:11:17;;;;;;;3.25;2.33;;;23.90;48.70;;;;;;5035716;28;20045;-69
2021/05/09 10:13:43;;;;;;;1.48;1.38;;;24.00;47.20;;;;;;5036059;28;20033;-69
2021/05/09 10:16:09;;;;;;;2.25;1.42;;;23.90;44.40;;;;;;5036212;28;20057;-71
2021/05/09 10:18:39;;;;;;;1.52;1.23;;;24.00;43.90;;;;;;5035955;28;20136;-72
2021/05/09 10:21:05;;;;;;;2.67;1.33;;;24.30;44.10;;;;;;5035823;28;20033;-71
2021/05/09 10:23:31;;;;;;;1.80;1.33;;;24.60;41.70;;;;;;5035866;28;20025;-71
2021/05/09 10:25:59;;;;;;;3.38;1.63;;;25.30;43.20;;;;;;5035874;28;20053;-69
2021/05/09 10:28:41;;;;;;;2.08;1.30;;;25.50;41.70;;;;;;5035493;28;20390;-70
2021/05/09 10:31:07;;;;;;;1.65;1.25;;;25.90;40.10;;;;;;5035666;28;20033;-71
2021/05/09 10:33:42;;;;;;;2.05;1.13;;;26.70;40.20;;;;;;5035649;28;20057;-69
2021/05/09 10:36:09;;;;;;;1.52;1.00;;;;;;;;;;5035608;28;20036;-71
2021/05/09 10:38:54;;;;;;;2.75;1.33;;;;;;;;;;5017767;28;20021;-70
2021/05/09 10:41:20;;;;;;;3.40;1.30;;;;;;;;;;5035191;28;20127;-69
2021/05/09 10:43:46;;;;;;;2.83;1.77;;;;;;;;;;5017699;28;20018;-71
2021/05/09 10:46:13;;;;;;;2.30;1.20;;;;;;;;;;5035423;28;20025;-70
2021/05/09 10:48:39;;;;;;;1.52;0.90;;;;;;;;;;5038240;28;20021;-71
2021/05/09 10:51:05;;;;;;;0.95;0.70;;;;;;;;;;5028538;28;20115;-70
2021/05/09 10:53:35;;;;;;;1.08;0.98;;;;;;;;;;5017459;28;20021;-70
2021/05/09 10:56:02;;;;;;;2.10;1.27;;;;;;;;;;5017293;28;20471;-69
2021/05/09 10:58:46;;;;;;;1.20;1.10;;;;;;;;;;5035115;28;20026;-70
2021/05/09 11:01:19;;;;;;;1.23;0.98;;;;;;;;;;5034754;28;20447;-76
2021/05/09 11:03:46;;;;;;;1.23;1.13;;;;;;;;;;5034983;28;20029;-72
2021/05/09 11:06:13;;;;;;;2.03;1.23;;;;;;;;;;5035005;28;20022;-70
2021/05/09 11:08:48;;;;;;;2.30;1.30;;;;;;;;;;5034884;28;20029;-71
2021/05/09 11:11:21;;;;;;;1.20;1.10;;;;;;;;;;5034811;28;20085;-71
2021/05/09 11:13:56;;;;;;;3.80;1.00;;;;;;;;;;5034841;28;20025;-70
2021/05/09 11:16:23;;;;;;;1.30;1.00;;;;;;;;;;5034491;28;20363;-70
2021/05/09 11:19:05;;;;;;;1.88;1.30;;;;;;;;;;5034304;28;20060;-69
2021/05/09 11:21:33;;;;;;;0.90;0.90;;;;;;;;;;5034599;28;20121;-70
2021/05/09 11:24:00;;;;;;;1.10;0.90;;;;;;;;;;5034924;28;20040;-71
2021/05/09 11:26:26;;;;;;;2.10;1.15;;;;;;;;;;5034544;28;20072;-69
2021/05/09 11:29:04;;;;;;;1.00;0.90;;;;;;;;;;5016687;28;20038;-69
2021/05/09 11:31:30;;;;;;;1.05;1.05;;;;;;;;;;5034470;28;20037;-70
2021/05/09 11:33:57;;;;;;;1.98;1.55;;;;;;;;;;5034459;28;20105;-70
2021/05/09 11:36:33;;;;;;;1.45;1.35;;;;;;;;;;5034709;28;20021;-69
2021/05/09 11:39:08;;;;;;;1.42;0.98;;;;;;;;;;5034390;28;20017;-69
2021/05/09 11:41:52;;;;;;;1.10;0.95;;;;;;;;;;5034093;28;20032;-71
2021/05/09 11:44:20;;;;;;;1.45;1.20;;;;;;;;;;5034301;28;20088;-71
2021/05/09 11:46:46;;;;;;;1.75;1.23;;;;;;;;;;5034102;28;20132;-69
2021/05/09 11:49:16;;;;;;;1.38;0.95;;;;;;;;;;5016221;28;20124;-69
2021/05/09 11:51:55;;;;;;;1.27;1.17;;;;;;;;;;5034129;28;20029;-69
2021/05/09 11:54:22;;;;;;;1.20;1.00;;;;;;;;;;5016040;28;20018;-70
2021/05/09 11:56:49;;;;;;;3.45;1.55;;;;;;;;;;5033672;28;20117;-71
2021/05/09 11:59:34;;;;;;;1.10;1.00;;;;;;;;;;5033645;28;20355;-70
2021/05/09 12:02:01;;;;;;;1.20;1.10;;;;;;;;;;5015198;28;20084;-70
2021/05/09 12:04:31;;;;;;;1.15;0.98;;;;;;;;;;5033733;28;20064;-70
2021/05/09 12:07:01;;;;;;;2.00;0.98;;;;;;;;;;5033917;28;20108;-71
2021/05/09 12:09:28;;;;;;;0.95;0.95;;;;;;;;;;5034226;28;20022;-70
2021/05/09 12:11:55;;;;;;;2.58;1.00;;;;;;;;;;5033388;28;20501;-70
2021/05/09 12:14:23;;;;;;;1.10;1.10;;;;;;;;;;5033536;28;20393;-70
2021/05/09 12:16:50;;;;;;;1.33;1.30;;;39.10;26.30;;;;;;5033751;28;20033;-70
2021/05/09 12:19:15;;;;;;;1.65;1.40;;;39.10;27.10;;;;;;5033700;28;20053;-71
2021/05/09 12:21:56;;;;;;;1.55;1.45;;;39.50;26.60;;;;;;5015761;28;20438;-71
2021/05/09 12:24:22;;;;;;;3.55;1.35;;;39.70;53.40;;;;;;5033640;28;20540;-70
2021/05/09 12:27:05;;;;;;;1.20;1.10;;;40.10;27.30;;;;;;5033457;28;20041;-70
2021/05/09 12:29:41;;;;;;;1.58;1.48;;;40.20;25.40;;;;;;5015458;28;20025;-71
2021/05/09 12:32:30;;;;;;;1.58;1.17;;;40.70;32.70;;;;;;5033480;28;20032;-70
2021/05/09 12:35:06;;;;;;;1.20;1.10;;;40.10;24.80;;;;;;5033468;28;20036;-69
2021/05/09 12:37:34;;;;;;;1.40;1.30;;;40.90;54.80;;;;;;5015517;28;20056;-69
2021/05/09 12:40:24;;;;;;;1.90;1.02;;;41.00;25.30;;;;;;5033246;28;20104;-70
2021/05/09 12:42:54;;;;;;;1.00;0.90;;;40.70;44.30;;;;;;5033406;28;20119;-70
2021/05/09 12:45:27;;;;;;;1.98;1.30;;;;;;;;;;5015578;28;20381;-70
2021/05/09 12:48:08;;;;;;;1.15;1.15;;;41.90;32.90;;;;;;5033174;28;20028;-70
2021/05/09 12:50:51;;;;;;;1.05;1.00;;;40.90;25.40;;;;;;5033431;28;20025;-70
2021/05/09 12:53:35;;;;;;;1.00;1.00;;;41.70;26.20;;;;;;5033318;28;20057;-70
2021/05/09 12:56:19;;;;;;;1.67;1.00;;;41.30;24.80;;;;;;5014799;28;20025;-70
2021/05/09 12:59:00;;;;;;;1.27;0.90;;;41.70;25.70;;;;;;5013952;28;20037;-70
2021/05/09 13:01:30;;;;;;;4.40;1.30;;;41.60;25.20;;;;;;5031084;28;20063;-71
2021/05/09 13:03:56;;;;;;;1.30;1.20;;;42.30;30.90;;;;;;5031712;28;20041;-71
2021/05/09 13:06:22;;;;;;;0.70;0.70;;;42.30;45.30;;;;;;5032046;28;20024;-71
2021/05/09 13:08:48;;;;;;;1.20;1.10;;;42.50;25.30;;;;;;5032002;28;20035;-70